• Join FlightAware (Why Join?)
  • Login
  • US Flag GB Flag 
05:16 EST


 

Airport Tracker/Info


-or-


 

Live Flight TrackerFlight Track Log ✈ JAL8807 ✈ 22-Jun-2013 ✈ CYVR - RJGG / NGO

Flight Track Log - Related Links

Times and Time Zones

All times are in EDT time to prevent confusion due to time zone crossing. See the JAL8807 flight status page for this flight to view local times or setup timezone preferences in your user account.

Time Position Orientation Groundspeed Altitude Reporting Facility
EDT Latitude Longitude Course Direction KTS MPH feet Rate Location/Type
18:19 49.1910 -123.2130 283° West 180 207 1,000  Level FlightAware
18:20 49.1960 -123.2460 283° West 194 223 2,100 2,400 Climbing FlightAware
18:20 49.2020 -123.2870 283° West 202 232 3,200 1,920 Climbing FlightAware
18:20 49.2050 -123.3090 282° West 213 245 3,600 1,920 Climbing FlightAware
18:21 49.2120 -123.3560 283° West 232 267 4,700 2,100 Climbing FlightAware
18:21 49.2180 -123.3960 283° West 250 288 5,500 1,920 Climbing FlightAware
18:22 49.2250 -123.4430 283° West 274 315 6,300 2,400 Climbing FlightAware
18:22 49.2330 -123.4990 282° West 279 321 7,700 2,760 Climbing FlightAware
18:23 49.2460 -123.5530 290° West 287 330 9,100 2,400 Climbing FlightAware
18:23 49.2750 -123.6270 301° West 310 357 10,600 1,620 Climbing FlightAware
18:24 49.3110 -123.7150 302° West 360 414 11,400 1,560 Climbing FlightAware
18:25 49.3490 -123.8090 302° West 386 444 12,800 2,220 Climbing FlightAware
18:25 49.3910 -123.9130 302° West 397 457 14,600 2,520 Climbing FlightAware
18:26 49.4300 -124.0110 301° West 403 464 16,400 2,460 Climbing FlightAware
18:27 49.4690 -124.1100 301° West 412 474 17,900 2,220 Climbing FlightAware
18:28 49.5140 -124.2230 302° West 422 486 19,600 2,280 Climbing FlightAware
18:28 49.5550 -124.3260 302° West 425 489 21,200 2,160 Climbing FlightAware
18:29 49.6000 -124.4420 301° West 432 497 22,700 1,860 Climbing FlightAware
18:30 49.6420 -124.5490 301° West 441 507 23,900 1,740 Climbing FlightAware
18:30 49.6880 -124.6680 301° West 450 518 25,200 1,680 Climbing FlightAware
18:31 49.7320 -124.7810 301° West 457 526 26,300 1,620 Climbing FlightAware
18:32 49.7770 -124.8960 301° West 465 535 27,400 1,740 Climbing FlightAware
18:32 49.8260 -125.0250 301° West 467 537 28,800 1,920 Climbing FlightAware
18:33 49.8610 -125.1160 301° West 462 532 30,000 1,980 Climbing FlightAware
18:34 49.9130 -125.2520 301° West 456 525 31,500 1,800 Climbing FlightAware
18:35 49.9610 -125.3790 300° West 455 524 32,700 1,380 Climbing FlightAware
18:35 50.0040 -125.4930 300° West 456 525 33,500 900 Climbing FlightAware
18:36 50.0530 -125.6230 300° West 464 534 34,000 300 Climbing FlightAware
18:37 50.0990 -125.7450 300° West 468 539 34,000  Level FlightAware
18:37 50.1410 -125.8580 300° West 469 540 34,000  Level FlightAware
18:38 50.1870 -125.9840 300° West 470 541 34,000  Level FlightAware
18:39 50.2320 -126.1040 300° West 475 547 34,000  Level FlightAware
18:39 50.2810 -126.2380 300° West 481 554 34,000  Level FlightAware
18:40 50.3230 -126.3530 300° West 482 555 34,000  Level FlightAware
18:41 50.3730 -126.4900 300° West 484 557 34,000  Level FlightAware
18:41 50.4090 -126.5900 299° West 487 560 34,000  Level FlightAware
18:42 50.4610 -126.7350 299° West 488 562 34,000  Level FlightAware
18:43 50.5080 -126.8670 299° West 492 566 34,000  Level FlightAware
18:44 50.5560 -127.0000 300° West 492 566 34,000  Level FlightAware
18:44 50.6110 -127.1560 299° West 492 566 34,000  Level FlightAware
18:46 50.6820 -127.3550 299° West 481 554 34,000  Level FlightAware
18:46 50.7420 -127.4930 305° West 480 552 34,000  Level FlightAware
18:47 50.8200 -127.6680 305° West 483 556 34,000  Level FlightAware
18:48 50.8610 -127.7580 306° West 484 557 34,000  Level FlightAware
18:49 50.9580 -127.9740 306° West 484 557 34,000  Level FlightAware
18:50 50.9980 -128.0620 306° West 484 557 34,000  Level FlightAware
18:51 51.0530 -128.1820 306° West 484 557 34,000  Level FlightAware
18:51 51.0930 -128.2700 306° West 484 557 34,000  Level FlightAware
18:52 51.1470 -128.3880 306° West 484 557 34,000  Level FlightAware
18:53 51.1880 -128.4790 306° West 484 557 34,000  Level FlightAware
18:53 51.2400 -128.5920 306° West 484 557 34,000  Level FlightAware
18:54 51.2800 -128.6810 306° West 484 557 34,000  Level FlightAware
18:55 51.3240 -128.7770 306° West 484 557 34,000  Level FlightAware
18:56 51.3780 -128.8980 306° West 484 557 34,000  Level FlightAware
18:56 51.4190 -128.9860 307° West 484 557 34,000  Level FlightAware
18:57 51.4720 -129.1050 306° West 484 557 34,000  Level FlightAware
18:58 51.5140 -129.1970 306° West 484 557 34,000  Level FlightAware
18:58 51.5670 -129.3150 306° West 484 557 34,000  Level FlightAware
18:59 51.7000 -129.8167 306° West 510 587 34,000  Level Vancouver Center
19:00 51.8000 -129.9833 314° West 510 587 34,000  Level Vancouver Center
19:01 51.8667 -130.1833 298° West 510 587 34,000  Level Vancouver Center
19:02 51.9500 -130.3833 304° West 510 587 34,000  Level Vancouver Center
19:03 52.0167 -130.5833 299° West 510 587 34,000  Level Vancouver Center
19:04 52.1000 -130.7667 307° West 510 587 34,000  Level Vancouver Center
19:05 52.1833 -130.9667 304° West 510 587 34,000  Level Vancouver Center
19:06 52.2500 -131.1500 301° West 510 587 34,000  Level Vancouver Center
19:07 52.3167 -131.3500 299° West 520 598 34,000  Level Vancouver Center
19:08 52.4167 -131.5500 309° West 520 598 34,000  Level Vancouver Center
19:09 52.4833 -131.7500 299° West 520 598 34,000  Level Vancouver Center
19:10 52.5667 -131.9667 302° West 520 598 34,000  Level Vancouver Center
19:11 52.6333 -132.1500 301° West 520 598 34,000  Level Vancouver Center
19:12 52.7167 -132.3500 305° West 520 598 34,000  Level Vancouver Center
19:13 52.8000 -132.5667 303° West 520 598 34,000  Level Vancouver Center
19:14 52.8667 -132.7667 299° West 530 610 34,000  Level Vancouver Center
19:15 52.9500 -132.9833 303° West 520 598 34,000  Level Vancouver Center
19:16 53.0167 -133.2000 297° West 520 598 34,000  Level Vancouver Center
19:17 53.0500 -133.2333 329° Northwest 530 610 34,000  Level Anchorage Center
19:17 53.0833 -133.4000 288° West 520 598 34,000  Level Vancouver Center
19:18 53.1667 -133.6167 303° West 520 598 34,000  Level Vancouver Center
19:19 53.2333 -133.8000 301° West 520 598 34,000  Level Vancouver Center
19:20 53.3000 -134.0167 297° West 520 598 34,000  Level Vancouver Center
19:21 53.3500 -134.0667 329° Northwest 520 598 34,000  Level Anchorage Center
19:22 53.4167 -134.2833 297° West 510 587 34,000  Level Anchorage Center
19:23 53.4833 -134.4833 299° West 510 587 34,000  Level Anchorage Center
19:24 53.5667 -134.7000 303° West 510 587 34,000  Level Anchorage Center
19:25 53.6333 -134.8833 302° West 490 564 34,000  Level Anchorage Center
19:26 53.7000 -135.1000 298° West 490 564 34,000  Level Anchorage Center
19:27 53.7667 -135.2833 302° West 480 552 34,000  Level Anchorage Center
19:28 53.8333 -135.5000 298° West 480 552 34,000  Level Anchorage Center
19:29 53.8833 -135.6833 295° West 480 552 34,000  Level Anchorage Center
19:30 53.9667 -135.9000 303° West 480 552 34,000  Level Anchorage Center
19:31 54.0167 -136.0833 295° West 470 541 34,000  Level Anchorage Center
19:32 54.0833 -136.2833 300° West 470 541 34,000  Level Anchorage Center
19:33 54.1500 -136.4667 302° West 480 552 34,000  Level Anchorage Center
19:34 54.2000 -136.6667 293° West 470 541 34,000  Level Anchorage Center
19:35 54.2667 -136.8667 300° West 480 552 34,000  Level Anchorage Center
19:36 54.3333 -137.0667 300° West 470 541 34,000  Level Anchorage Center
19:37 54.3833 -137.2500 295° West 450 518 34,000  Level Anchorage Center
19:38 54.4500 -137.4500 300° West 460 529 34,000  Level Anchorage Center
19:39 54.5167 -137.6500 300° West 450 518 34,000  Level Anchorage Center
19:40 54.5667 -137.8333 295° West 440 506 34,000  Level Anchorage Center
19:41 54.6167 -138.0333 293° West 450 518 34,000  Level Anchorage Center
19:42 54.6833 -138.2167 302° West 440 506 34,000  Level Anchorage Center
19:43 54.7333 -138.4000 295° West 450 518 34,000  Level Anchorage Center
19:44 54.7833 -138.6000 294° West 440 506 34,000  Level Anchorage Center
19:45 54.8500 -138.8000 300° West 450 518 34,000  Level Anchorage Center
19:46 54.9000 -138.9667 298° West 420 483 34,000  Level Anchorage Center
19:47 54.9500 -139.1667 294° West 430 495 34,000  Level Anchorage Center
19:48 55.0000 -139.3500 295° West 430 495 34,000  Level Anchorage Center
19:49 55.0500 -139.5333 296° West 420 483 34,000  Level Anchorage Center
19:50 55.1167 -139.7333 300° West 440 506 34,000  Level Anchorage Center
19:51 55.1667 -139.9167 296° West 440 506 34,000  Level Anchorage Center
19:52 55.2167 -140.1000 296° West 410 472 34,000  Level Anchorage Center
19:54 55.3167 -140.4667 296° West 420 483 34,000  Level Anchorage Center
19:55 55.3667 -140.6333 298° West 390 449 34,000  Level Anchorage Center
19:56 55.4167 -140.8167 296° West 420 483 34,000  Level Anchorage Center
19:58 55.5000 -141.2000 291° West 430 495 34,000  Level Anchorage Center
19:59 55.5500 -141.3833 296° West 430 495 34,000  Level Anchorage Center
20:00 55.6000 -141.5667 296° West 430 495 34,000  Level Anchorage Center
20:01 55.6500 -141.7667 294° West 430 495 34,000  Level Anchorage Center
20:02 55.7000 -141.9500 296° West 420 483 34,000  Level Anchorage Center
20:03 55.7500 -142.1667 292° West 420 483 34,000  Level Anchorage Center
20:04 55.8000 -142.3667 294° West 420 483 34,000  Level Anchorage Center
20:05 55.8500 -142.5667 294° West 430 495 34,000  Level Anchorage Center
20:06 55.8833 -142.7167 292° West 430 495 34,000  Level Anchorage Center
20:07 55.9500 -142.9667 296° West 440 506 34,000  Level Anchorage Center
20:08 56.0000 -143.1667 294° West 440 506 34,000  Level Anchorage Center
20:09 56.0333 -143.3667 287° West 450 518 34,000  Level Anchorage Center
20:10 56.0833 -143.5833 293° West 450 518 34,000  Level Anchorage Center
20:11 56.1333 -143.7833 294° West 450 518 34,000  Level Anchorage Center
20:12 56.1833 -144.0000 293° West 450 518 34,000  Level Anchorage Center
20:13 56.2333 -144.2000 294° West 450 518 34,000  Level Anchorage Center
20:14 56.2833 -144.4167 293° West 450 518 34,000  Level Anchorage Center
20:15 56.3333 -144.6333 293° West 450 518 34,000  Level Anchorage Center
20:16 56.3667 -144.8500 286° West 450 518 34,000  Level Anchorage Center
20:17 56.4167 -145.0667 293° West 460 529 34,000  Level Anchorage Center
20:18 56.4667 -145.2667 294° West 450 518 34,000  Level Anchorage Center
20:19 56.5167 -145.4833 293° West 450 518 34,000  Level Anchorage Center
20:20 56.5500 -145.7000 286° West 450 518 34,000  Level Anchorage Center
20:21 56.6000 -145.9167 293° West 450 518 34,000 300 Level Anchorage Center
20:22 56.6500 -146.1167 295° West 450 518 34,700 720 Climbing Anchorage Center
20:23 56.6833 -146.3333 286° West 450 518 35,500 600 Climbing Anchorage Center
20:24 56.7333 -146.5500 293° West 450 518 36,000 240 Climbing Anchorage Center
20:25 56.7833 -146.7667 293° West 450 518 36,000  Level Anchorage Center
20:26 56.8167 -146.9833 286° West 450 518 36,000  Level Anchorage Center
20:27 56.8667 -147.2167 291° West 470 541 36,000  Level Anchorage Center
20:28 56.9167 -147.4333 293° West 460 529 36,000  Level Anchorage Center
20:29 56.9500 -147.6667 285° West 460 529 36,000  Level Anchorage Center
20:30 57.0000 -147.9000 292° West 470 541 36,000  Level Anchorage Center
20:31 57.0333 -148.1167 286° West 460 529 36,000  Level Anchorage Center
20:32 57.0833 -148.3500 292° West 460 529 36,000  Level Anchorage Center
20:33 57.1167 -148.5833 285° West 470 541 36,000  Level Anchorage Center
20:34 57.1667 -148.8167 292° West 480 552 36,000  Level Anchorage Center
20:35 57.2000 -149.0500 285° West 470 541 36,000  Level Anchorage Center
20:36 57.2500 -149.2833 292° West 480 552 36,000  Level Anchorage Center
20:37 57.2833 -149.5333 284° West 480 552 36,000  Level Anchorage Center
20:38 57.3333 -149.7667 292° West 480 552 36,000  Level Anchorage Center
20:39 57.3667 -150.0000 285° West 480 552 36,000  Level Anchorage Center
20:40 57.4167 -150.2500 290° West 490 564 36,000  Level Anchorage Center
20:41 57.4500 -150.4833 285° West 490 564 36,000  Level Anchorage Center
20:42 57.4833 -150.7333 284° West 490 564 36,000  Level Anchorage Center
20:43 57.5000 -150.9833 277° West 480 552 36,000  Level Anchorage Center
20:44 57.5167 -151.2000 278° West 470 541 36,000  Level Anchorage Center
20:45 57.5333 -151.4500 277° West 470 541 36,000  Level Anchorage Center
20:46 57.5667 -151.7000 284° West 480 552 36,000  Level Anchorage Center
20:47 57.5833 -151.9500 277° West 480 552 36,000  Level Anchorage Center
20:48 57.6000 -152.2000 277° West 480 552 36,000  Level Anchorage Center
20:49 57.6333 -152.5000 282° West 480 552 36,000  Level Anchorage Center
20:50 57.6500 -152.7500 277° West 490 564 36,000  Level Anchorage Center
20:51 57.6667 -153.0000 277° West 480 552 36,000  Level Anchorage Center
20:52 57.6833 -153.2500 277° West 480 552 36,000  Level Anchorage Center
20:53 57.7000 -153.5000 277° West 480 552 36,000  Level Anchorage Center
20:54 57.7167 -153.7500 277° West 490 564 36,000  Level Anchorage Center
20:55 57.7333 -154.0000 277° West 490 564 36,000  Level Anchorage Center
20:56 57.7500 -154.2500 277° West 480 552 36,000  Level Anchorage Center
20:57 57.7667 -154.5000 277° West 490 564 36,000  Level Anchorage Center
20:58 57.7833 -154.7500 277° West 480 552 36,000  Level Anchorage Center
20:59 57.8000 -155.0167 277° West 490 564 36,000  Level Anchorage Center
21:00 57.8167 -155.2667 277° West 480 552 36,000  Level Anchorage Center
21:01 57.8333 -155.5333 277° West 480 552 36,000  Level Anchorage Center
21:02 57.8500 -155.7833 277° West 480 552 36,000  Level Anchorage Center
21:03 57.8500 -156.0167 270° West 480 552 36,000  Level Anchorage Center
21:04 57.8667 -156.2667 277° West 470 541 36,000  Level Anchorage Center
21:05 57.8833 -156.5167 277° West 480 552 36,000  Level Anchorage Center
21:06 57.9000 -156.7667 277° West 480 552 36,000  Level Anchorage Center
21:07 57.9000 -157.0333 270° West 480 552 36,000  Level Anchorage Center
21:08 57.9167 -157.2833 277° West 470 541 36,000  Level Anchorage Center
21:09 57.9167 -157.5333 270° West 480 552 36,000  Level Anchorage Center
21:10 57.9333 -157.7833 277° West 480 552 36,000  Level Anchorage Center
21:11 57.9333 -158.0333 270° West 470 541 36,000  Level Anchorage Center
21:12 57.9500 -158.2833 277° West 480 552 36,000  Level Anchorage Center
21:13 57.9500 -158.5333 270° West 480 552 36,000  Level Anchorage Center
21:14 57.9667 -158.8000 277° West 480 552 36,000  Level Anchorage Center
21:15 57.9667 -159.0500 270° West 490 564 36,000  Level Anchorage Center
21:16 57.9833 -159.3167 277° West 480 552 36,000  Level Anchorage Center
21:17 57.9833 -159.5667 270° West 490 564 36,000  Level Anchorage Center
21:18 57.9833 -159.8333 270° West 490 564 36,000  Level Anchorage Center
21:19 58.0000 -160.0833 277° West 480 552 36,000  Level Anchorage Center
21:20 58.0000 -160.3333 270° West 480 552 36,000  Level Anchorage Center
21:21 58.0167 -160.6000 277° West 490 564 36,000  Level Anchorage Center
21:22 58.0167 -160.8500 270° West 480 552 36,000  Level Anchorage Center
21:23 58.0167 -161.1000 270° West 480 552 36,000  Level Anchorage Center
21:24 58.0333 -161.3667 277° West 490 564 36,000  Level Anchorage Center
21:25 58.0333 -161.6167 270° West 480 552 36,000  Level Anchorage Center
21:26 58.0333 -161.8667 270° West 470 541 36,000  Level Anchorage Center
21:27 58.0500 -162.1333 277° West 470 541 36,000  Level Anchorage Center
21:28 58.0500 -162.3833 270° West 480 552 36,000  Level Anchorage Center
21:29 58.0500 -162.6333 270° West 480 552 36,000  Level Anchorage Center
21:30 58.0500 -162.9000 270° West 500 575 36,000  Level Anchorage Center
21:31 58.0500 -163.1500 270° West 470 541 36,000  Level Anchorage Center
21:32 58.0500 -163.4167 270° West 490 564 36,000  Level Anchorage Center
21:33 58.0500 -163.6667 270° West 490 564 36,000  Level Anchorage Center
21:34 58.0500 -163.9333 270° West 480 552 36,000  Level Anchorage Center
21:35 58.0500 -164.1833 270° West 490 564 36,000  Level Anchorage Center
21:36 58.0500 -164.4500 270° West 480 552 36,000  Level Anchorage Center
21:37 58.0500 -164.7000 270° West 500 575 36,000  Level Anchorage Center
21:38 58.0500 -164.9667 270° West 490 564 36,000  Level Anchorage Center
21:39 58.0500 -165.2333 270° West 500 575 36,000  Level Anchorage Center
21:40 58.0333 -165.4833 263° West 480 552 36,000  Level Anchorage Center
21:41 58.0167 -165.7333 263° West 490 564 36,000  Level Anchorage Center
21:42 58.0167 -166.0000 270° West 480 552 36,000  Level Anchorage Center
21:43 58.0000 -166.2500 263° West 480 552 36,000  Level Anchorage Center
21:44 57.9833 -166.5000 263° West 480 552 36,000  Level Anchorage Center
21:45 57.9667 -166.7833 264° West 470 541 36,000  Level Anchorage Center
21:46 57.9500 -167.0333 263° West 490 564 36,000  Level Anchorage Center
21:47 57.9333 -167.2833 263° West 490 564 36,000  Level Anchorage Center
21:48 57.9167 -167.5500 263° West 490 564 36,000  Level Anchorage Center
21:49 57.9000 -167.8000 263° West 490 564 36,000  Level Anchorage Center
21:50 57.8833 -168.0500 263° West 490 564 36,000  Level Anchorage Center
21:51 57.8667 -168.3167 263° West 490 564 36,000  Level Anchorage Center
21:52 57.8500 -168.5667 263° West 490 564 36,000  Level Anchorage Center
21:53 57.8333 -168.8167 263° West 490 564 36,000  Level Anchorage Center
21:54 57.8000 -169.0667 256° West 480 552 36,000  Level Anchorage Center
21:55 57.7833 -169.3167 263° West 480 552 36,000  Level Anchorage Center
21:56 57.7667 -169.5667 263° West 480 552 36,000  Level Anchorage Center
21:57 57.7500 -169.8167 263° West 480 552 36,000  Level Anchorage Center
21:58 57.7167 -170.0667 256° West 490 564 36,000  Level Anchorage Center
21:59 57.7000 -170.3167 263° West 480 552 36,000  Level Anchorage Center
22:00 57.6833 -170.5667 263° West 480 552 36,000  Level Anchorage Center
22:01 57.6500 -170.8167 256° West 480 552 36,000  Level Anchorage Center
22:02 57.6333 -171.0667 263° West 480 552 36,000  Level Anchorage Center
22:03 57.6167 -171.3000 263° West 470 541 36,000  Level Anchorage Center
22:04 57.5833 -171.5500 256° West 490 564 36,000  Level Anchorage Center
22:05 57.5667 -171.8000 263° West 480 552 36,000  Level Anchorage Center
22:06 57.5333 -172.0500 256° West 490 564 36,000  Level Anchorage Center
22:07 57.5000 -172.3000 256° West 480 552 36,000  Level Anchorage Center
22:08 57.4833 -172.5333 263° West 480 552 36,000  Level Anchorage Center
22:09 57.4500 -172.7833 256° West 490 564 36,000  Level Anchorage Center
22:10 57.4333 -173.0333 263° West 480 552 36,000  Level Anchorage Center
22:11 57.4000 -173.2667 255° West 480 552 36,000  Level Anchorage Center
22:12 57.3667 -173.5167 256° West 480 552 36,000  Level Anchorage Center
22:13 57.3333 -173.7667 256° West 480 552 36,000  Level Anchorage Center
22:14 57.3167 -174.0000 263° West 480 552 36,000  Level Anchorage Center
22:15 57.2833 -174.2500 256° West 480 552 36,000  Level Anchorage Center
22:16 57.2500 -174.5000 256° West 480 552 36,000  Level Anchorage Center
22:17 57.2333 -174.7333 263° West 460 529 36,000  Level Anchorage Center
22:20 57.2012 -174.9780 256° West  Level FlightAware Approximate
22:21 57.1167 -175.6500 256° West 472 543 36,000  Level Anchorage Center
22:27 56.9533 -176.8123 255° West 472 543 36,000  Level FlightAware Transoceanic
22:28 56.9193 -177.0435 255° West 472 543 36,000  Level FlightAware Transoceanic
22:29 56.8849 -177.2743 255° West 472 543 36,000  Level FlightAware Transoceanic
22:30 56.8501 -177.5046 254° West 472 543 36,000  Level FlightAware Transoceanic
22:31 56.8148 -177.7345 254° West 472 543 36,000  Level FlightAware Transoceanic
22:31 56.7833 -177.9000 254° West 472 543 36,000  Level Anchorage Center
22:32 56.7792 -177.9640 254° West 472 543 36,000  Level FlightAware Transoceanic
22:33 56.7431 -178.1931 254° West 472 543 36,000  Level FlightAware Transoceanic
22:34 56.7066 -178.4217 254° West 472 543 36,000  Level FlightAware Transoceanic
22:35 56.6697 -178.6499 253° West 472 543 36,000  Level FlightAware Transoceanic
22:36 56.6323 -178.8776 253° West 472 543 36,000  Level FlightAware Transoceanic
22:37 56.5596 -179.2894 253° West 472 543 36,000  Level FlightAware Transoceanic
22:38 56.5209 -179.5193 253° West 472 543 36,000  Level FlightAware Transoceanic
22:39 56.4817 -179.7487 253° West 472 543 36,000  Level FlightAware Transoceanic
22:40 56.4420 -179.9777 253° West 472 543 36,000  Level FlightAware Transoceanic
22:40 56.4167 179.9000 253° West 467 537 36,000  Level Anchorage Center
22:41 56.4020 179.7938 252° West 472 543 36,000  Level FlightAware Transoceanic
22:42 56.3615 179.5657 252° West 472 543 36,000  Level FlightAware Transoceanic
22:43 56.3206 179.3382 252° West 472 543 36,000  Level FlightAware Transoceanic
22:44 56.2794 179.1111 252° West 472 543 36,000  Level FlightAware Transoceanic
22:45 56.2376 178.8846 252° West 472 543 36,000  Level FlightAware Transoceanic
22:46 56.1955 178.6585 251° West 472 543 36,000  Level FlightAware Transoceanic
22:47 56.1569 178.4592 251° West 467 537 36,000  Level FlightAware Transoceanic
22:48 56.1120 178.2210 251° West 467 537 36,000  Level FlightAware Transoceanic
22:49 56.0667 177.9833 241° Southwest 467 537 36,000  Level FlightAware Transoceanic
22:49 56.0667 177.9833 241° Southwest 455 524 36,000  Level Anchorage Center
22:50 56.0062 177.7923 240° Southwest 467 537 36,000  Level FlightAware Transoceanic
22:50 56.0167 177.8000 240° Southwest 455 524 36,000  Level Anchorage Center
22:51 55.9455 177.6018 240° Southwest 467 537 36,000  Level FlightAware Transoceanic
22:52 55.8844 177.4120 240° Southwest 467 537 36,000  Level FlightAware Transoceanic
22:53 55.8231 177.2227 240° Southwest 467 537 36,000  Level FlightAware Transoceanic
22:53 55.8000 177.1500 239° Southwest 460 529 36,000  Level Anchorage Center
22:54 55.7615 177.0340 240° Southwest 467 537 36,000  Level FlightAware Transoceanic
22:54 55.7333 176.9833 235° Southwest 460 529 36,000  Level Anchorage Center
22:55 55.6996 176.8459 240° Southwest 455 524 36,000  Level FlightAware Transoceanic
22:55 55.6667 176.7667 241° Southwest 460 529 36,000  Level Anchorage Center
22:56 55.6457 176.6642 239° Southwest 455 524 36,000  Level FlightAware Transoceanic
22:56 55.6000 176.5500 241° Southwest 470 541 36,000  Level Anchorage Center
22:57 55.5829 176.4770 239° Southwest 455 524 36,000  Level FlightAware Transoceanic
22:57 55.5333 176.3833 235° Southwest 460 529 36,000  Level Anchorage Center
22:58 55.5197 176.2905 239° Southwest 455 524 36,000  Level FlightAware Transoceanic
22:58 55.4667 176.1667 242° Southwest 470 541 36,000  Level Anchorage Center
22:59 55.4563 176.1045 239° Southwest 455 524 36,000  Level FlightAware Transoceanic
22:59 55.4167 175.9833 244° Southwest 460 529 36,000  Level Anchorage Center
23:00 55.3333 175.7833 234° Southwest 470 541 36,000  Level Anchorage Center
23:01 55.2833 175.6167 242° Southwest 460 529 36,000  Level Anchorage Center
23:02 55.2000 175.4000 236° Southwest 460 529 36,000  Level Anchorage Center
23:03 55.1500 175.2333 242° Southwest 460 529 36,000  Level Anchorage Center
23:04 55.0667 175.0333 234° Southwest 460 529 36,000  Level Anchorage Center
23:05 55.0000 174.8333 240° Southwest 460 529 36,000  Level Anchorage Center
23:06 54.9500 174.6667 242° Southwest 450 518 36,000  Level Anchorage Center
23:07 54.8667 174.4667 234° Southwest 450 518 36,000  Level Anchorage Center
23:08 54.8167 174.3000 243° Southwest 450 518 36,000  Level Anchorage Center
23:09 54.7333 174.1000 234° Southwest 450 518 36,000  Level Anchorage Center
23:10 54.6833 173.9500 240° Southwest 450 518 36,000  Level Anchorage Center
23:11 54.6000 173.7500 234° Southwest 460 529 36,000  Level Anchorage Center
23:12 54.5333 173.5500 240° Southwest 460 529 36,000  Level Anchorage Center
23:13 54.4667 173.3833 236° Southwest 460 529 36,000  Level Anchorage Center
23:14 54.4000 173.1833 240° Southwest 460 529 36,000  Level Anchorage Center
23:15 54.3333 173.0333 233° Southwest 450 518 36,000  Level Anchorage Center
23:16 54.2667 172.8333 240° Southwest 440 506 36,000  Level Anchorage Center
23:17 54.2000 172.6833 233° Southwest 450 518 36,000  Level Anchorage Center
23:18 54.1333 172.5000 238° Southwest 420 483 36,000  Level Anchorage Center
23:19 54.0500 172.3167 232° Southwest 440 506 36,000  Level Anchorage Center
23:20 53.9833 172.1667 233° Southwest 450 518 36,000  Level Anchorage Center
23:21 53.9167 171.9833 238° Southwest 460 529 36,000  Level Anchorage Center
23:22 53.8500 171.8333 233° Southwest 460 529 36,000  Level Anchorage Center
23:23 53.7667 171.6333 235° Southwest 450 518 36,000  Level Anchorage Center
23:24 53.7000 171.5000 230° Southwest 440 506 36,000  Level Anchorage Center
23:25 53.6167 171.3167 233° Southwest 450 518 36,000  Level Anchorage Center
23:26 53.5667 171.1667 241° Southwest 430 495 36,000  Level Anchorage Center
23:27 53.4833 171.0000 230° Southwest 440 506 36,000  Level Anchorage Center
23:28 53.4167 170.8167 239° Southwest 420 483 36,000  Level Anchorage Center
23:29 53.3500 170.6833 230° Southwest 430 495 36,000  Level Anchorage Center
23:30 53.2667 170.5000 233° Southwest 440 506 36,000  Level Anchorage Center
23:31 53.2000 170.3500 233° Southwest 450 518 36,000  Level Anchorage Center
23:32 53.1167 170.1667 233° Southwest 470 541 36,000  Level Anchorage Center
23:33 53.0500 170.0333 230° Southwest 450 518 36,000  Level Anchorage Center
23:34 52.9833 169.8500 239° Southwest 440 506 36,000  Level Anchorage Center
23:35 52.9167 169.6500 241° Southwest 440 506 36,000  Level Anchorage Center
23:36 52.8500 169.5000 234° Southwest 460 529 36,000  Level Anchorage Center
23:37 52.8000 169.3167 246° West 430 495 36,000  Level Anchorage Center
23:38 52.7333 169.1500 237° Southwest 450 518 36,000  Level Anchorage Center
23:39 52.6833 168.9667 246° West 430 495 36,000  Level Anchorage Center
23:40 52.6333 168.8167 241° Southwest 440 506 36,000  Level Anchorage Center
23:41 52.5667 168.6167 241° Southwest 440 506 36,000  Level Anchorage Center
23:42 52.5167 168.4667 241° Southwest 440 506 36,000  Level Anchorage Center
23:43 52.4500 168.2833 239° Southwest 430 495 36,000  Level Anchorage Center
23:44 52.3667 168.1000 233° Southwest 450 518 36,000  Level Anchorage Center
23:45 52.3167 167.9500 241° Southwest 450 518 36,000  Level Anchorage Center
23:46 52.2667 167.7667 246° West 410 472 36,000  Level Anchorage Center
23:47 52.2000 167.6167 234° Southwest 430 495 36,000  Level Anchorage Center
23:48 52.1333 167.4333 239° Southwest 450 518 36,000  Level Anchorage Center
23:50 52.0578 167.2282 239° Southwest  Level FlightAware Approximate
23:57 51.6040 166.0291 239° Southwest  Level FlightAware Approximate
23:57 51.6000 165.9833 238° Southwest 428 493 36,000  Level Anchorage Center
23:58 51.5382 165.8598 238° Southwest  Level FlightAware Approximate
23:59 51.4721 165.6909 238° Southwest  Level FlightAware Approximate
00:00 51.4060 165.5224 238° Southwest  Level FlightAware Approximate
00:00 51.4333 165.5500 237° Southwest 427 491 36,800  Level Anchorage Center
00:01 51.3406 165.3534 238° Southwest  Level FlightAware Approximate
00:02 51.2749 165.1848 238° Southwest  Level FlightAware Approximate
00:03 51.2090 165.0168 238° Southwest  Level FlightAware Approximate
00:04 51.1691 164.9116 237° Southwest 428 493 36,000  Level FlightAware Transoceanic
00:05 51.0963 164.7350 237° Southwest 428 493 36,000 360 Level FlightAware Transoceanic
00:06 51.0719 164.6727 236° Southwest 427 491 36,800 360 Climbing FlightAware Transoceanic
00:07 51.0111 164.5278 236° Southwest 427 491 36,800 120 Level FlightAware Transoceanic
00:07 50.9833 164.4333 223° Southwest 424 488 37,000 300 Climbing Anchorage Center
00:07 50.9500 164.3833 237° Southwest 427 491 37,000 -300 Level Anchorage Center
00:08 50.9500 164.3833 237° Southwest 427 491 36,800 -180 Descending FlightAware Transoceanic
00:09 50.8856 164.2268 237° Southwest 427 491 36,800  Level FlightAware Transoceanic
00:10 50.8209 164.0707 237° Southwest 427 491 36,800  Level FlightAware Transoceanic
00:11 50.7560 163.9151 237° Southwest 427 491 36,800  Level FlightAware Transoceanic
00:12 50.6909 163.7598 236° Southwest 427 491 36,800 60 Level FlightAware Transoceanic
00:13 50.6140 163.5774 236° Southwest 427 491 37,000 60 Climbing FlightAware Transoceanic
00:14 50.5461 163.4176 236° Southwest 427 491 37,000  Level FlightAware Transoceanic
00:15 50.4781 163.2583 236° Southwest 427 491 37,000  Level FlightAware Transoceanic
00:16 50.4098 163.0994 236° Southwest 427 491 37,000  Level FlightAware Transoceanic
00:16 50.3333 162.9333 236° Southwest 431 496 37,000  Level Anchorage Center
00:17 50.3412 162.9410 236° Southwest 427 491 37,000  Level FlightAware Transoceanic
00:18 50.2725 162.7830 236° Southwest 427 491 37,000  Level FlightAware Transoceanic
00:19 50.2036 162.6255 236° Southwest 427 491 37,000  Level FlightAware Transoceanic
00:20 50.1344 162.4685 235° Southwest 427 491 37,000  Level FlightAware Transoceanic
00:21 50.0651 162.3119 235° Southwest 427 491 37,000  Level FlightAware Transoceanic
00:22 49.9955 162.1557 235° Southwest 427 491 37,000  Level FlightAware Transoceanic
00:23 49.9202 161.9949 235° Southwest 431 496 37,000  Level FlightAware Transoceanic
00:24 49.8507 161.8401 235° Southwest 431 496 37,000  Level FlightAware Transoceanic
00:25 49.7809 161.6857 235° Southwest 431 496 37,000  Level FlightAware Transoceanic
00:26 49.7109 161.5318 235° Southwest 431 496 37,000  Level FlightAware Transoceanic
00:26 49.6833 161.4500 234° Southwest 430 495 37,000  Level Anchorage Center
00:27 49.6407 161.3783 235° Southwest 431 496 37,000  Level FlightAware Transoceanic
00:28 49.5703 161.2253 235° Southwest 431 496 37,000  Level FlightAware Transoceanic
00:29 49.4997 161.0727 234° Southwest 431 496 37,000  Level FlightAware Transoceanic
00:29 49.4833 161.0333 234° Southwest 430 495 37,000  Level Anchorage Center
00:30 49.4289 160.9205 234° Southwest 431 496 37,000  Level FlightAware Transoceanic
00:31 49.3579 160.7688 234° Southwest 431 496 37,000  Level FlightAware Transoceanic
00:32 49.2755 160.5852 234° Southwest 430 495 37,000  Level FlightAware Transoceanic
00:33 49.2068 160.4425 234° Southwest 430 495 37,000  Level FlightAware Transoceanic
00:34 49.1381 160.3002 233° Southwest 430 495 37,000  Level FlightAware Transoceanic
00:35 49.0696 160.1607 234° Southwest 430 495 37,000  Level FlightAware Transoceanic
00:36 49.0000 160.0167 233° Southwest 430 495 37,000  Level FlightAware Transoceanic
00:37 48.9252 159.8641 233° Southwest 430 495 37,000  Level FlightAware Transoceanic
00:38 48.8502 159.7120 233° Southwest 430 495 37,000  Level FlightAware Transoceanic
00:39 48.7750 159.5603 233° Southwest 430 495 37,000  Level FlightAware Transoceanic
00:40 48.6996 159.4091 233° Southwest 430 495 37,000  Level FlightAware Transoceanic
00:41 48.6240 159.2583 233° Southwest 430 495 37,000  Level FlightAware Transoceanic
00:42 48.5482 159.1080 233° Southwest 430 495 37,000  Level FlightAware Transoceanic
00:43 48.4722 158.9582 233° Southwest 430 495 37,000  Level FlightAware Transoceanic
00:44 48.3961 158.8088 232° Southwest 430 495 37,000  Level FlightAware Transoceanic
00:45 48.3197 158.6598 232° Southwest 430 495 37,000  Level FlightAware Transoceanic
00:46 48.2431 158.5113 232° Southwest 430 495 37,000  Level FlightAware Transoceanic
00:47 48.1664 158.3632 232° Southwest 430 495 37,000  Level FlightAware Transoceanic
00:48 48.0894 158.2156 232° Southwest 430 495 37,000  Level FlightAware Transoceanic
00:49 48.0123 158.0684 232° Southwest 430 495 37,000  Level FlightAware Transoceanic
00:50 47.9350 157.9217 232° Southwest 430 495 37,000  Level FlightAware Transoceanic
00:51 47.8575 157.7754 232° Southwest 430 495 37,000  Level FlightAware Transoceanic
00:52 47.7798 157.6295 232° Southwest 430 495 37,000  Level FlightAware Transoceanic
00:53 47.7019 157.4841 231° Southwest 430 495 37,000  Level FlightAware Transoceanic
00:54 47.6239 157.3391 231° Southwest 430 495 37,000  Level FlightAware Transoceanic
00:55 47.5456 157.1945 231° Southwest 430 495 37,000  Level FlightAware Transoceanic
00:56 47.4672 157.0504 231° Southwest 430 495 37,000  Level FlightAware Transoceanic
00:57 47.3886 156.9067 231° Southwest 430 495 37,000  Level FlightAware Transoceanic
00:58 47.3098 156.7634 231° Southwest 430 495 37,000  Level FlightAware Transoceanic
00:59 47.2308 156.6205 231° Southwest 430 495 37,000  Level FlightAware Transoceanic
01:00 47.1517 156.4781 231° Southwest 430 495 37,000  Level FlightAware Transoceanic
01:01 47.0724 156.3361 231° Southwest 430 495 37,000  Level FlightAware Transoceanic
01:02 46.9929 156.1945 230° Southwest 430 495 37,000  Level FlightAware Transoceanic
01:03 46.9132 156.0534 230° Southwest 430 495 37,000  Level FlightAware Transoceanic
01:04 46.8334 155.9126 230° Southwest 430 495 37,000  Level FlightAware Transoceanic
01:05 46.7534 155.7723 230° Southwest 430 495 37,000  Level FlightAware Transoceanic
01:06 46.6732 155.6324 230° Southwest 430 495 37,000  Level FlightAware Transoceanic
01:07 46.5929 155.4929 230° Southwest 430 495 37,000  Level FlightAware Transoceanic
01:08 46.5124 155.3539 230° Southwest 430 495 37,000  Level FlightAware Transoceanic
01:09 46.4317 155.2152 230° Southwest 430 495 37,000  Level FlightAware Transoceanic
01:10 46.3508 155.0770 230° Southwest 430 495 37,000  Level FlightAware Transoceanic
01:11 46.2698 154.9391 230° Southwest 430 495 37,000  Level FlightAware Transoceanic
01:12 46.1886 154.8017 229° Southwest 430 495 37,000  Level FlightAware Transoceanic
01:13 46.1073 154.6646 229° Southwest 430 495 37,000  Level FlightAware Transoceanic
01:14 46.0258 154.5280 229° Southwest 430 495 37,000  Level FlightAware Transoceanic
01:15 45.9441 154.3918 229° Southwest 430 495 37,000  Level FlightAware Transoceanic
01:16 45.8623 154.2560 229° Southwest 430 495 37,000  Level FlightAware Transoceanic
01:17 45.7803 154.1205 229° Southwest 430 495 37,000  Level FlightAware Transoceanic
01:18 45.6981 153.9855 229° Southwest 430 495 37,000  Level FlightAware Transoceanic
01:19 45.6158 153.8509 229° Southwest 430 495 37,000  Level FlightAware Transoceanic
01:20 45.5257 153.7289 224° Southwest  Level FlightAware Approximate
01:21 45.4355 153.6072 223° Southwest  Level FlightAware Approximate
01:22 45.4426 153.5979 228° Southwest  Level FlightAware Approximate
01:23 45.3599 153.4659 228° Southwest  Level FlightAware Approximate
01:24 45.2771 153.3344 228° Southwest  Level FlightAware Approximate
01:25 45.1941 153.2032 228° Southwest  Level FlightAware Approximate
01:26 45.1110 153.0724 228° Southwest  Level FlightAware Approximate
01:27 45.0277 152.9420 228° Southwest  Level FlightAware Approximate
01:28 44.9443 152.8119 228° Southwest  Level FlightAware Approximate
01:29 44.8607 152.6823 228° Southwest  Level FlightAware Approximate
01:30 44.7770 152.5530 228° Southwest  Level FlightAware Approximate
01:31 44.6931 152.4241 228° Southwest  Level FlightAware Approximate
01:32 44.6091 152.2955 227° Southwest  Level FlightAware Approximate
01:33 44.5249 152.1674 227° Southwest  Level FlightAware Approximate
01:34 44.4407 152.0396 227° Southwest  Level FlightAware Approximate
01:35 44.3562 151.9122 227° Southwest  Level FlightAware Approximate
01:36 44.2716 151.7851 227° Southwest  Level FlightAware Approximate
01:37 44.1869 151.6584 227° Southwest  Level FlightAware Approximate
01:38 44.1021 151.5321 227° Southwest  Level FlightAware Approximate
01:39 44.0171 151.4061 227° Southwest  Level FlightAware Approximate
01:40 43.9319 151.2805 227° Southwest  Level FlightAware Approximate
01:41 43.8467 151.1553 227° Southwest  Level FlightAware Approximate
01:42 43.7612 151.0304 227° Southwest  Level FlightAware Approximate
01:43 43.6757 150.9058 226° Southwest  Level FlightAware Approximate
01:44 43.5900 150.7817 226° Southwest  Level FlightAware Approximate
01:45 43.5042 150.6578 226° Southwest  Level FlightAware Approximate
01:46 43.4183 150.5344 226° Southwest  Level FlightAware Approximate
01:47 43.3322 150.4113 226° Southwest  Level FlightAware Approximate
01:48 43.2460 150.2885 226° Southwest  Level FlightAware Approximate
01:49 43.1596 150.1660 226° Southwest  Level FlightAware Approximate
01:50 43.0732 150.0440 226° Southwest  Level FlightAware Approximate
01:51 42.9866 149.9222 226° Southwest  Level FlightAware Approximate
01:52 42.8998 149.8008 226° Southwest  Level FlightAware Approximate
01:53 42.8130 149.6798 226° Southwest  Level FlightAware Approximate
01:54 42.7260 149.5591 226° Southwest  Level FlightAware Approximate
01:55 42.6389 149.4387 225° Southwest  Level FlightAware Approximate
01:56 42.5517 149.3187 225° Southwest  Level FlightAware Approximate
01:56 42.5820 149.3500 225° Southwest 444 511 38,000  Level FlightAware
01:57 42.4643 149.1990 225° Southwest  Level FlightAware Approximate
01:57 42.5010 149.2390 225° Southwest 444 511 38,000  Level FlightAware
01:58 42.4560 149.1760 226° Southwest 444 511 38,000  Level FlightAware
01:58 42.3720 149.0640 225° Southwest 446 513 38,000  Level FlightAware
01:59 42.3120 148.9820 225° Southwest 451 519 38,000  Level FlightAware
02:00 42.2540 148.9040 225° Southwest 454 522 38,000  Level FlightAware
02:00 42.1950 148.8250 225° Southwest 454 522 38,000  Level FlightAware
02:01 42.1280 148.7350 225° Southwest 454 522 38,000  Level FlightAware
02:02 42.0690 148.6550 225° Southwest 456 525 38,000  Level FlightAware
02:03 42.0020 148.5650 225° Southwest 456 525 38,000  Level FlightAware
02:03 41.9350 148.4760 225° Southwest 456 525 38,000  Level FlightAware
02:04 41.8740 148.3960 224° Southwest 456 525 38,000  Level FlightAware
02:05 41.8140 148.3160 225° Southwest 456 525 38,000  Level FlightAware
02:05 41.7470 148.2270 225° Southwest 456 525 38,000  Level FlightAware
02:06 41.6870 148.1490 224° Southwest 451 519 38,000  Level FlightAware
02:07 41.6260 148.0710 224° Southwest 451 519 38,000  Level FlightAware
02:08 41.5570 147.9820 224° Southwest 451 519 38,000  Level FlightAware
02:08 41.4890 147.8940 224° Southwest 451 519 38,000  Level FlightAware
02:09 41.4280 147.8160 224° Southwest 451 519 38,000  Level FlightAware
02:10 41.3620 147.7320 224° Southwest 451 519 38,000  Level FlightAware
02:10 41.3000 147.6540 223° Southwest 451 519 38,000  Level FlightAware
02:11 41.2360 147.5720 224° Southwest 451 519 38,000  Level FlightAware
02:12 41.1760 147.4970 223° Southwest 451 519 38,000  Level FlightAware
02:12 41.1300 147.4380 224° Southwest 451 519 38,000  Level FlightAware
02:13 41.0320 147.3140 224° Southwest 451 519 38,000  Level FlightAware
02:14 40.9880 147.2580 224° Southwest 451 519 38,000  Level FlightAware
02:15 40.9050 147.1570 223° Southwest 450 518 38,000  Level FlightAware
02:15 40.8300 147.0630 223° Southwest 451 519 38,000  Level FlightAware
02:16 40.7670 146.9850 223° Southwest 453 521 38,000  Level FlightAware
02:17 40.7050 146.9080 223° Southwest 459 528 38,000  Level FlightAware
02:18 40.6420 146.8290 224° Southwest 453 521 38,000  Level FlightAware
02:18 40.5660 146.7370 223° Southwest 461 531 38,000  Level FlightAware
02:19 40.4810 146.6320 223° Southwest 450 518 38,000  Level FlightAware
02:20 40.4190 146.5570 223° Southwest 442 509 38,000  Level FlightAware
02:21 40.3600 146.4840 223° Southwest 443 510 38,000  Level FlightAware
02:21 40.2980 146.4090 223° Southwest 437 503 38,000  Level FlightAware
02:22 40.2280 146.3230 223° Southwest 437 503 38,000  Level FlightAware
02:23 40.1700 146.2530 223° Southwest 437 503 38,000  Level FlightAware
02:24 40.1250 146.1980 223° Southwest 437 503 38,000  Level FlightAware
02:24 40.0640 146.1240 223° Southwest 437 503 38,000  Level FlightAware
02:25 40.0180 146.0670 224° Southwest 437 503 38,000  Level FlightAware
02:26 39.9580 145.9940 223° Southwest 437 503 38,000  Level FlightAware
02:27 39.8340 145.8490 222° Southwest 420 483 38,000  Level FlightAware
02:27 39.7760 145.7790 223° Southwest 420 483 38,000  Level FlightAware
02:28 39.7310 145.7250 223° Southwest 420 483 38,000  Level FlightAware
02:29 39.6730 145.6550 223° Southwest 420 483 38,000  Level FlightAware
02:29 39.6280 145.6000 223° Southwest 420 483 38,000  Level FlightAware
02:30 39.5730 145.5330 223° Southwest 420 483 38,000  Level FlightAware
02:32 39.4700 145.4090 223° Southwest 420 483 38,000  Level FlightAware
02:32 39.4270 145.3570 223° Southwest 420 483 38,000  Level FlightAware
02:33 39.3680 145.2850 223° Southwest 420 483 38,000  Level FlightAware
02:34 39.3230 145.2310 223° Southwest 420 483 38,000  Level FlightAware
02:34 39.2780 145.1770 223° Southwest 420 483 38,000  Level FlightAware
02:35 39.2130 145.0990 223° Southwest 420 483 38,000  Level FlightAware
02:36 39.1520 145.0260 223° Southwest 420 483 38,000  Level FlightAware
02:39 38.9149 144.7722 220° Southwest  Level FlightAware Approximate
02:40 38.8193 144.6705 220° Southwest  Level FlightAware Approximate
02:41 38.7255 144.5654 222° Southwest  Level FlightAware Approximate
02:42 38.6325 144.4600 222° Southwest  Level FlightAware Approximate
02:43 38.5394 144.3549 221° Southwest  Level FlightAware Approximate
02:44 38.4462 144.2500 221° Southwest  Level FlightAware Approximate
02:45 38.3529 144.1455 221° Southwest  Level FlightAware Approximate
02:46 38.2595 144.0412 221° Southwest  Level FlightAware Approximate
02:47 38.1660 143.9372 221° Southwest  Level FlightAware Approximate
02:48 38.0725 143.8334 221° Southwest  Level FlightAware Approximate
02:49 37.9788 143.7299 221° Southwest  Level FlightAware Approximate
02:50 37.8851 143.6267 221° Southwest  Level FlightAware Approximate
02:51 37.7958 143.5196 249° West  Level FlightAware Approximate
02:51 37.9670 143.3490 249° West 401 461 38,000  Level FlightAware
02:51 37.9220 143.2600 237° Southwest 401 461 38,000  Level FlightAware
02:52 37.8900 143.1970 237° Southwest 401 461 38,000  Level FlightAware
02:53 37.8590 143.1360 237° Southwest 401 461 38,000  Level FlightAware
02:53 37.7950 143.0120 237° Southwest 38,000  Level FlightAware
02:54 37.7590 142.9420 237° Southwest 401 461 38,000  Level FlightAware
02:55 37.7100 142.8460 237° Southwest 401 461 38,000  Level FlightAware
02:55 37.6760 142.7790 237° Southwest 400 460 38,000  Level FlightAware
02:56 37.6140 142.6600 237° Southwest 400 460 38,000  Level FlightAware
02:57 37.5760 142.5870 237° Southwest 401 461 38,000  Level FlightAware
02:58 37.5350 142.5080 237° Southwest 400 460 38,000  Level FlightAware
02:58 37.4880 142.4160 237° Southwest 402 463 38,000  Level FlightAware
02:59 37.4440 142.3320 237° Southwest 401 461 38,000  Level FlightAware
03:00 37.4040 142.2550 237° Southwest 402 463 38,000  Level FlightAware
03:01 37.3700 142.1520 247° West 387 445 38,000  Level FlightAware
03:01 37.3410 142.0660 247° West 386 444 38,000  Level FlightAware
03:02 37.3130 141.9800 248° West 386 444 38,000  Level FlightAware
03:03 37.2840 141.8970 246° West 387 445 38,000  Level FlightAware
03:03 37.2560 141.8140 247° West 388 447 38,000  Level FlightAware
03:04 37.2240 141.7210 247° West 385 443 38,000  Level FlightAware
03:05 37.1960 141.6390 247° West 386 444 38,000  Level FlightAware
03:06 37.1650 141.5470 247° West 386 444 38,000  Level FlightAware
03:06 37.1360 141.4640 246° West 387 445 38,000  Level FlightAware
03:07 37.1030 141.3700 246° West 387 445 38,000  Level FlightAware
03:08 37.0760 141.2890 247° West 387 445 38,000  Level FlightAware
03:08 37.0430 141.1940 247° West 387 445 38,000  Level FlightAware
03:09 37.0140 141.1120 246° West 389 448 38,000  Level FlightAware
03:10 36.9840 141.0270 246° West 389 448 38,000  Level FlightAware
03:11 36.9490 140.9230 247° West 390 449 38,000  Level FlightAware
03:11 36.9160 140.8310 246° West 393 452 38,000  Level FlightAware
03:12 36.8790 140.7280 246° West 388 447 38,000  Level FlightAware
03:13 36.8490 140.6430 246° West 387 445 38,000  Level FlightAware
03:13 36.8200 140.5610 246° West 389 448 38,000  Level FlightAware
03:14 36.7910 140.4790 246° West 392 451 38,000  Level FlightAware
03:15 36.7630 140.4010 246° West 391 450 38,000  Level FlightAware
03:16 36.7250 140.3130 242° Southwest 400 460 38,000  Level FlightAware
03:16 36.6800 140.2270 237° Southwest 398 458 38,000  Level FlightAware
03:17 36.6360 140.1440 237° Southwest 399 459 38,000  Level FlightAware
03:18 36.5910 140.0600 236° Southwest 404 465 38,000  Level FlightAware
03:18 36.5510 139.9830 237° Southwest 400 460 38,000  Level FlightAware
03:19 36.5130 139.9110 237° Southwest 406 467 38,000  Level FlightAware
03:20 36.4630 139.8200 236° Southwest 409 471 38,000  Level FlightAware
03:20 36.4170 139.7430 233° Southwest 409 471 38,000  Level FlightAware
03:21 36.3670 139.6590 234° Southwest 406 467 38,000 -120 Level FlightAware
03:22 36.3250 139.5860 234° Southwest 398 458 37,900 -960 Descending FlightAware
03:23 36.2810 139.5110 234° Southwest 390 449 36,700 -2,100 Descending FlightAware
03:23 36.2340 139.4300 234° Southwest 390 449 35,000 -2,520 Descending FlightAware
03:24 36.1910 139.3570 234° Southwest 391 450 33,300 -2,760 Descending FlightAware
03:25 36.1500 139.2740 239° Southwest 392 451 31,200 -2,340 Descending FlightAware
03:25 36.1220 139.1980 246° West 386 444 30,000 -960 Descending FlightAware
03:26 36.0830 139.0930 245° Southwest 379 436 29,800 -600 Descending FlightAware
03:27 36.0580 139.0250 246° West 384 442 29,200 -1,020 Descending FlightAware
03:27 36.0260 138.9410 245° Southwest 380 437 28,500 -1,560 Descending FlightAware
03:28 35.9980 138.8670 245° Southwest 371 427 27,100 -1,920 Descending FlightAware
03:29 35.9620 138.7710 245° Southwest 369 425 25,800 -1,080 Descending FlightAware
03:30 35.9290 138.6820 245° Southwest 379 436 25,500 -480 Descending FlightAware
03:30 35.8990 138.6050 244° Southwest 379 436 25,200 -540 Descending FlightAware
03:31 35.8690 138.5250 245° Southwest 378 435 24,800 -540 Descending FlightAware
03:32 35.8360 138.4390 245° Southwest 374 430 24,500 -540 Descending FlightAware
03:32 35.8060 138.3610 245° Southwest 377 434 24,100 -540 Descending FlightAware
03:33 35.7750 138.2790 245° Southwest 373 429 23,800 -780 Descending FlightAware
03:34 35.7470 138.2060 245° Southwest 365 420 23,100 -1,200 Descending FlightAware
03:35 35.7160 138.1280 244° Southwest 362 417 22,200 -1,380 Descending FlightAware
03:35 35.6900 138.0600 245° Southwest 364 419 21,200 -2,160 Descending FlightAware
03:36 35.6560 137.9720 245° Southwest 364 419 19,300 -2,580 Descending FlightAware
03:37 35.6260 137.8840 247° West 355 409 17,500 -2,160 Descending FlightAware
03:37 35.5940 137.8070 243° Southwest 362 417 16,100 -1,500 Descending FlightAware
03:38 35.5470 137.7400 229° Southwest 353 406 15,400 -600 Descending FlightAware
03:39 35.4630 137.6640 216° Southwest 350 403 15,000 -240 Descending FlightAware
03:40 35.4180 137.6090 225° Southwest 341 392 15,000 -480 Level FlightAware
03:40 35.4020 137.5870 228° Southwest 336 387 14,600 -2,460 Descending FlightAware
03:41 35.3600 137.4910 242° Southwest 345 397 12,800 -2,100 Descending FlightAware
03:42 35.3300 137.4230 242° Southwest 340 391 11,800 -1,680 Descending FlightAware
03:42 35.2960 137.3490 241° Southwest 332 382 10,500 -960 Descending FlightAware
03:43 35.2700 137.2780 246° West 283 326 10,400 -600 Descending FlightAware
03:44 35.2530 137.2180 251° West 271 312 9,700 -1,200 Descending FlightAware
03:44 35.2430 137.1810 252° West 271 312 9,100 -1,500 Descending FlightAware
03:45 35.2310 137.1370 252° West 267 307 8,400 -1,020 Descending FlightAware
03:47 35.0488 136.9743 219° Southwest  Level Estimated
03:47 35.1830 136.9630 219° Southwest 256 295 6,200  Level FlightAware
03:48 35.1680 136.9060 252° West 218 251 6,200 -360 Level FlightAware
03:48 35.1600 136.8760 252° West 205 236 5,900 -960 Descending FlightAware
03:48 35.1510 136.8580 239° Southwest 188 216 5,500 -1,500 Descending FlightAware
03:49 35.1360 136.8360 230° Southwest 189 217 4,800 -1,560 Descending FlightAware
03:49 35.1230 136.8160 232° Southwest 190 219 4,200 -1,200 Descending FlightAware
03:50 35.1050 136.7900 230° Southwest 186 214 3,700 -540 Descending FlightAware
03:50 35.0800 136.7760 205° Southwest 192 221 3,700  Level FlightAware
03:50 35.0730 136.7720 205° Southwest 180 207 3,700 -180 Level FlightAware
03:51 35.0480 136.7610 200° South 194 223 3,600 -540 Descending FlightAware
03:51 35.0250 136.7660 170° South 197 227 3,200 -1,080 Descending FlightAware
03:52 35.0080 136.7690 172° South 185 213 2,800 -1,080 Descending FlightAware
03:52 34.9860 136.7750 167° South 178 205 2,400 -900 Descending FlightAware
03:52 34.9760 136.7770 171° South 168 193 2,200 -420 Descending FlightAware
03:53 34.9470 136.7840 169° South 153 176 1,900 -480 Descending FlightAware
03:54 34.9110 136.7930 168° South 134 154 1,300 -1,140 Descending FlightAware
03:54 34.8880 136.7980 170° South 134 154 500 -2,400 Descending FlightAware
03:57 34.8583 136.8053 228° Southwest  Level Estimated
03:58 34.8583 136.8053 228° Southwest  Level Estimated
03:59 34.8583 136.8053 228° Southwest  Level Estimated
04:00 34.8583 136.8053 228° Southwest  Level Estimated
04:01 34.8583 136.8053 228° Southwest  Level Estimated
04:02 34.8583 136.8053 228° Southwest  Level Estimated
04:03 34.8583 136.8053 228° Southwest  Level Estimated
04:04 34.8583 136.8053 228° Southwest  Level Estimated
04:05 34.8583 136.8053 228° Southwest  Level Estimated
04:06 34.8583 136.8053 228° Southwest  Level Estimated